sensor_id;sensor_type;location;lat;lon;timestamp;P1;durP1;ratioP1;P2;durP2;ratioP2
56039;SDS011;43937;41.366;2.072;2022-09-12T00:00:38;3.78;;;1.10;;
56039;SDS011;43937;41.366;2.072;2022-09-12T00:03:03;2.22;;;0.90;;
56039;SDS011;43937;41.366;2.072;2022-09-12T00:05:28;3.33;;;1.38;;
56039;SDS011;43937;41.366;2.072;2022-09-12T00:07:55;17.90;;;2.03;;
56039;SDS011;43937;41.366;2.072;2022-09-12T00:10:20;2.50;;;1.58;;
56039;SDS011;43937;41.366;2.072;2022-09-12T00:12:46;3.67;;;1.17;;
56039;SDS011;43937;41.366;2.072;2022-09-12T00:15:11;6.35;;;1.63;;
56039;SDS011;43937;41.366;2.072;2022-09-12T00:17:37;0.82;;;0.70;;
56039;SDS011;43937;41.366;2.072;2022-09-12T00:20:03;0.98;;;0.85;;
56039;SDS011;43937;41.366;2.072;2022-09-12T00:22:31;0.98;;;0.80;;
56039;SDS011;43937;41.366;2.072;2022-09-12T00:24:57;4.47;;;1.88;;
56039;SDS011;43937;41.366;2.072;2022-09-12T00:27:22;1.80;;;1.02;;
56039;SDS011;43937;41.366;2.072;2022-09-12T00:29:48;1.33;;;1.17;;
56039;SDS011;43937;41.366;2.072;2022-09-12T00:32:13;2.65;;;2.05;;
56039;SDS011;43937;41.366;2.072;2022-09-12T00:34:38;3.45;;;1.63;;
56039;SDS011;43937;41.366;2.072;2022-09-12T00:37:04;4.40;;;1.90;;
56039;SDS011;43937;41.366;2.072;2022-09-12T00:39:29;3.70;;;1.65;;
56039;SDS011;43937;41.366;2.072;2022-09-12T00:41:55;1.48;;;1.15;;
56039;SDS011;43937;41.366;2.072;2022-09-12T00:46:47;1.42;;;1.23;;
56039;SDS011;43937;41.366;2.072;2022-09-12T00:49:23;5.18;;;1.25;;
56039;SDS011;43937;41.366;2.072;2022-09-12T00:54:38;1.00;;;0.70;;
56039;SDS011;43937;41.366;2.072;2022-09-12T00:57:09;0.90;;;0.85;;
56039;SDS011;43937;41.366;2.072;2022-09-12T00:59:45;7.03;;;1.20;;
56039;SDS011;43937;41.366;2.072;2022-09-12T01:02:14;0.80;;;0.50;;
56039;SDS011;43937;41.366;2.072;2022-09-12T01:04:40;1.92;;;1.20;;
56039;SDS011;43937;41.366;2.072;2022-09-12T01:07:07;1.95;;;1.27;;
56039;SDS011;43937;41.366;2.072;2022-09-12T01:09:36;3.05;;;1.35;;
56039;SDS011;43937;41.366;2.072;2022-09-12T01:12:03;1.20;;;0.77;;
56039;SDS011;43937;41.366;2.072;2022-09-12T01:14:30;1.83;;;0.77;;
56039;SDS011;43937;41.366;2.072;2022-09-12T01:16:56;1.27;;;1.05;;
56039;SDS011;43937;41.366;2.072;2022-09-12T01:19:39;4.93;;;1.08;;
56039;SDS011;43937;41.366;2.072;2022-09-12T01:25:39;2.03;;;1.10;;
56039;SDS011;43937;41.366;2.072;2022-09-12T01:30:49;5.03;;;1.98;;
56039;SDS011;43937;41.366;2.072;2022-09-12T01:47:05;7.65;;;1.45;;
56039;SDS011;43937;41.366;2.072;2022-09-12T01:52:24;1.55;;;0.90;;
56039;SDS011;43937;41.366;2.072;2022-09-12T01:55:01;2.67;;;1.42;;
56039;SDS011;43937;41.366;2.072;2022-09-12T01:57:47;4.47;;;1.90;;
56039;SDS011;43937;41.366;2.072;2022-09-12T02:00:20;3.75;;;1.02;;
56039;SDS011;43937;41.366;2.072;2022-09-12T02:02:56;2.25;;;1.30;;
56039;SDS011;43937;41.366;2.072;2022-09-12T02:08:00;1.70;;;1.33;;
56039;SDS011;43937;41.366;2.072;2022-09-12T02:10:33;5.75;;;1.50;;
56039;SDS011;43937;41.366;2.072;2022-09-12T02:13:20;1.70;;;1.35;;
56039;SDS011;43937;41.366;2.072;2022-09-12T02:16:05;5.30;;;2.65;;
56039;SDS011;43937;41.366;2.072;2022-09-12T02:18:34;2.85;;;1.92;;
56039;SDS011;43937;41.366;2.072;2022-09-12T02:21:05;1.25;;;1.15;;
56039;SDS011;43937;41.366;2.072;2022-09-12T02:23:31;4.25;;;2.42;;
56039;SDS011;43937;41.366;2.072;2022-09-12T02:26:02;3.80;;;1.77;;
56039;SDS011;43937;41.366;2.072;2022-09-12T02:28:36;1.88;;;1.40;;
56039;SDS011;43937;41.366;2.072;2022-09-12T02:34:05;2.72;;;1.60;;
56039;SDS011;43937;41.366;2.072;2022-09-12T02:39:39;3.38;;;1.70;;
56039;SDS011;43937;41.366;2.072;2022-09-12T02:42:04;7.22;;;2.58;;
56039;SDS011;43937;41.366;2.072;2022-09-12T02:44:30;5.60;;;1.77;;
56039;SDS011;43937;41.366;2.072;2022-09-12T02:47:06;1.35;;;1.25;;
56039;SDS011;43937;41.366;2.072;2022-09-12T02:51:23;2.10;;;1.77;;
56039;SDS011;43937;41.366;2.072;2022-09-12T02:53:49;2.90;;;1.52;;
56039;SDS011;43937;41.366;2.072;2022-09-12T02:56:17;5.07;;;2.13;;
56039;SDS011;43937;41.366;2.072;2022-09-12T02:58:48;5.97;;;1.98;;
56039;SDS011;43937;41.366;2.072;2022-09-12T03:05:50;3.38;;;1.95;;
56039;SDS011;43937;41.366;2.072;2022-09-12T03:16:16;5.13;;;1.58;;
56039;SDS011;43937;41.366;2.072;2022-09-12T03:22:00;2.33;;;1.77;;
56039;SDS011;43937;41.366;2.072;2022-09-12T03:24:36;5.13;;;1.85;;
56039;SDS011;43937;41.366;2.072;2022-09-12T03:27:20;5.45;;;2.40;;
56039;SDS011;43937;41.366;2.072;2022-09-12T03:30:01;4.22;;;2.00;;
56039;SDS011;43937;41.366;2.072;2022-09-12T03:32:42;2.17;;;1.60;;
56039;SDS011;43937;41.366;2.072;2022-09-12T03:35:16;3.53;;;1.55;;
56039;SDS011;43937;41.366;2.072;2022-09-12T03:37:43;3.90;;;2.10;;
56039;SDS011;43937;41.366;2.072;2022-09-12T03:40:09;3.97;;;1.90;;
56039;SDS011;43937;41.366;2.072;2022-09-12T03:42:35;3.42;;;2.17;;
56039;SDS011;43937;41.366;2.072;2022-09-12T03:45:01;1.67;;;1.58;;
56039;SDS011;43937;41.366;2.072;2022-09-12T03:47:27;2.15;;;1.95;;
56039;SDS011;43937;41.366;2.072;2022-09-12T03:49:53;5.40;;;1.90;;
56039;SDS011;43937;41.366;2.072;2022-09-12T03:52:19;2.90;;;2.03;;
56039;SDS011;43937;41.366;2.072;2022-09-12T03:54:45;2.47;;;1.52;;
56039;SDS011;43937;41.366;2.072;2022-09-12T03:57:10;3.80;;;1.85;;
56039;SDS011;43937;41.366;2.072;2022-09-12T03:59:36;3.65;;;1.83;;
56039;SDS011;43937;41.366;2.072;2022-09-12T04:02:01;2.58;;;1.58;;
56039;SDS011;43937;41.366;2.072;2022-09-12T04:04:27;1.92;;;1.30;;
56039;SDS011;43937;41.366;2.072;2022-09-12T04:06:53;3.38;;;1.73;;
56039;SDS011;43937;41.366;2.072;2022-09-12T04:09:18;2.28;;;1.58;;
56039;SDS011;43937;41.366;2.072;2022-09-12T04:11:43;4.07;;;2.17;;
56039;SDS011;43937;41.366;2.072;2022-09-12T04:14:09;2.13;;;1.55;;
56039;SDS011;43937;41.366;2.072;2022-09-12T04:16:34;2.25;;;1.73;;
56039;SDS011;43937;41.366;2.072;2022-09-12T04:19:00;4.28;;;1.95;;
56039;SDS011;43937;41.366;2.072;2022-09-12T04:21:25;3.35;;;2.10;;
56039;SDS011;43937;41.366;2.072;2022-09-12T04:23:51;3.63;;;2.08;;
56039;SDS011;43937;41.366;2.072;2022-09-12T04:28:12;1.45;;;1.30;;
56039;SDS011;43937;41.366;2.072;2022-09-12T04:30:37;2.17;;;1.23;;
56039;SDS011;43937;41.366;2.072;2022-09-12T04:33:03;3.83;;;1.92;;
56039;SDS011;43937;41.366;2.072;2022-09-12T04:35:28;5.25;;;1.60;;
56039;SDS011;43937;41.366;2.072;2022-09-12T04:37:53;3.00;;;1.35;;
56039;SDS011;43937;41.366;2.072;2022-09-12T04:40:19;1.77;;;1.35;;
56039;SDS011;43937;41.366;2.072;2022-09-12T04:42:44;2.03;;;1.58;;
56039;SDS011;43937;41.366;2.072;2022-09-12T04:45:10;2.55;;;1.42;;
56039;SDS011;43937;41.366;2.072;2022-09-12T04:47:36;1.10;;;1.00;;
56039;SDS011;43937;41.366;2.072;2022-09-12T04:50:02;2.17;;;1.02;;
56039;SDS011;43937;41.366;2.072;2022-09-12T04:52:28;6.90;;;1.40;;
56039;SDS011;43937;41.366;2.072;2022-09-12T04:54:53;1.80;;;1.20;;
56039;SDS011;43937;41.366;2.072;2022-09-12T04:57:19;2.65;;;1.55;;
56039;SDS011;43937;41.366;2.072;2022-09-12T04:59:44;1.30;;;0.80;;
56039;SDS011;43937;41.366;2.072;2022-09-12T05:02:10;3.65;;;1.95;;
56039;SDS011;43937;41.366;2.072;2022-09-12T05:04:35;4.45;;;2.22;;
56039;SDS011;43937;41.366;2.072;2022-09-12T05:07:01;5.22;;;2.03;;
56039;SDS011;43937;41.366;2.072;2022-09-12T05:09:28;2.95;;;2.25;;
56039;SDS011;43937;41.366;2.072;2022-09-12T05:11:53;2.28;;;1.90;;
56039;SDS011;43937;41.366;2.072;2022-09-12T05:14:19;4.15;;;2.42;;
56039;SDS011;43937;41.366;2.072;2022-09-12T05:16:44;2.25;;;1.83;;
56039;SDS011;43937;41.366;2.072;2022-09-12T05:19:10;4.65;;;1.63;;
56039;SDS011;43937;41.366;2.072;2022-09-12T05:21:36;4.30;;;2.00;;
56039;SDS011;43937;41.366;2.072;2022-09-12T05:24:01;5.47;;;2.45;;
56039;SDS011;43937;41.366;2.072;2022-09-12T05:26:29;2.30;;;1.85;;
56039;SDS011;43937;41.366;2.072;2022-09-12T05:28:54;4.10;;;2.47;;
56039;SDS011;43937;41.366;2.072;2022-09-12T05:31:24;10.02;;;2.88;;
56039;SDS011;43937;41.366;2.072;2022-09-12T05:33:51;6.93;;;2.63;;
56039;SDS011;43937;41.366;2.072;2022-09-12T05:37:06;6.68;;;2.65;;
56039;SDS011;43937;41.366;2.072;2022-09-12T05:39:32;5.63;;;2.83;;
56039;SDS011;43937;41.366;2.072;2022-09-12T05:41:57;6.00;;;3.35;;
56039;SDS011;43937;41.366;2.072;2022-09-12T05:44:23;5.25;;;3.13;;
56039;SDS011;43937;41.366;2.072;2022-09-12T05:46:48;6.05;;;3.38;;
56039;SDS011;43937;41.366;2.072;2022-09-12T05:49:15;3.85;;;2.60;;
56039;SDS011;43937;41.366;2.072;2022-09-12T05:51:42;3.25;;;2.60;;
56039;SDS011;43937;41.366;2.072;2022-09-12T05:55:39;4.00;;;2.72;;
56039;SDS011;43937;41.366;2.072;2022-09-12T05:58:05;6.93;;;2.78;;
56039;SDS011;43937;41.366;2.072;2022-09-12T06:00:31;5.43;;;2.30;;
56039;SDS011;43937;41.366;2.072;2022-09-12T06:02:56;5.00;;;2.42;;
56039;SDS011;43937;41.366;2.072;2022-09-12T06:06:49;4.28;;;2.00;;
56039;SDS011;43937;41.366;2.072;2022-09-12T06:09:15;4.75;;;2.22;;
56039;SDS011;43937;41.366;2.072;2022-09-12T06:11:40;5.45;;;2.80;;
56039;SDS011;43937;41.366;2.072;2022-09-12T06:14:07;3.67;;;2.38;;
56039;SDS011;43937;41.366;2.072;2022-09-12T06:16:34;5.45;;;2.15;;
56039;SDS011;43937;41.366;2.072;2022-09-12T06:19:00;6.97;;;2.70;;
56039;SDS011;43937;41.366;2.072;2022-09-12T06:21:28;15.98;;;2.92;;
56039;SDS011;43937;41.366;2.072;2022-09-12T06:23:59;4.63;;;2.75;;
56039;SDS011;43937;41.366;2.072;2022-09-12T06:26:25;5.32;;;2.60;;
56039;SDS011;43937;41.366;2.072;2022-09-12T06:28:53;4.75;;;2.88;;
56039;SDS011;43937;41.366;2.072;2022-09-12T06:31:29;6.00;;;2.97;;
56039;SDS011;43937;41.366;2.072;2022-09-12T06:33:58;9.05;;;2.80;;
56039;SDS011;43937;41.366;2.072;2022-09-12T06:36:30;5.00;;;2.38;;
56039;SDS011;43937;41.366;2.072;2022-09-12T06:39:02;5.43;;;3.20;;
56039;SDS011;43937;41.366;2.072;2022-09-12T06:41:30;6.03;;;3.13;;
56039;SDS011;43937;41.366;2.072;2022-09-12T06:43:56;4.85;;;2.85;;
56039;SDS011;43937;41.366;2.072;2022-09-12T06:46:23;4.10;;;2.70;;
56039;SDS011;43937;41.366;2.072;2022-09-12T06:48:49;7.90;;;3.50;;
56039;SDS011;43937;41.366;2.072;2022-09-12T06:51:15;7.07;;;3.20;;
56039;SDS011;43937;41.366;2.072;2022-09-12T06:53:42;6.53;;;2.53;;
56039;SDS011;43937;41.366;2.072;2022-09-12T06:58:35;3.38;;;1.75;;
56039;SDS011;43937;41.366;2.072;2022-09-12T07:01:05;5.25;;;2.90;;
56039;SDS011;43937;41.366;2.072;2022-09-12T07:03:31;10.88;;;2.72;;
56039;SDS011;43937;41.366;2.072;2022-09-12T07:06:01;4.03;;;1.92;;
56039;SDS011;43937;41.366;2.072;2022-09-12T07:08:28;5.18;;;2.53;;
56039;SDS011;43937;41.366;2.072;2022-09-12T07:10:55;3.70;;;2.60;;
56039;SDS011;43937;41.366;2.072;2022-09-12T07:13:23;3.92;;;2.00;;
56039;SDS011;43937;41.366;2.072;2022-09-12T07:15:48;2.70;;;1.50;;
56039;SDS011;43937;41.366;2.072;2022-09-12T07:18:14;7.53;;;3.03;;
56039;SDS011;43937;41.366;2.072;2022-09-12T07:20:39;3.55;;;2.10;;
56039;SDS011;43937;41.366;2.072;2022-09-12T07:23:05;4.10;;;2.70;;
56039;SDS011;43937;41.366;2.072;2022-09-12T07:25:31;4.68;;;2.72;;
56039;SDS011;43937;41.366;2.072;2022-09-12T07:27:56;3.55;;;2.25;;
56039;SDS011;43937;41.366;2.072;2022-09-12T07:30:22;3.35;;;1.40;;
56039;SDS011;43937;41.366;2.072;2022-09-12T07:32:50;2.97;;;1.75;;
56039;SDS011;43937;41.366;2.072;2022-09-12T07:35:19;1.42;;;1.33;;
56039;SDS011;43937;41.366;2.072;2022-09-12T07:37:45;4.38;;;1.83;;
56039;SDS011;43937;41.366;2.072;2022-09-12T07:40:11;4.47;;;1.27;;
56039;SDS011;43937;41.366;2.072;2022-09-12T07:42:36;1.90;;;1.20;;
56039;SDS011;43937;41.366;2.072;2022-09-12T07:45:02;5.47;;;1.85;;
56039;SDS011;43937;41.366;2.072;2022-09-12T07:47:27;2.05;;;1.15;;
56039;SDS011;43937;41.366;2.072;2022-09-12T07:49:53;1.70;;;1.30;;
56039;SDS011;43937;41.366;2.072;2022-09-12T07:52:18;2.40;;;1.20;;
56039;SDS011;43937;41.366;2.072;2022-09-12T07:54:44;2.72;;;1.52;;
56039;SDS011;43937;41.366;2.072;2022-09-12T07:57:10;0.95;;;0.85;;
56039;SDS011;43937;41.366;2.072;2022-09-12T07:59:35;1.83;;;1.27;;
56039;SDS011;43937;41.366;2.072;2022-09-12T08:02:09;3.70;;;1.77;;
56039;SDS011;43937;41.366;2.072;2022-09-12T08:04:37;3.55;;;1.45;;
56039;SDS011;43937;41.366;2.072;2022-09-12T08:07:02;1.88;;;1.13;;
56039;SDS011;43937;41.366;2.072;2022-09-12T08:09:28;1.67;;;1.05;;
56039;SDS011;43937;41.366;2.072;2022-09-12T08:11:53;2.42;;;1.70;;
56039;SDS011;43937;41.366;2.072;2022-09-12T08:14:19;1.98;;;1.70;;
56039;SDS011;43937;41.366;2.072;2022-09-12T08:16:45;2.55;;;1.60;;
56039;SDS011;43937;41.366;2.072;2022-09-12T08:19:12;4.63;;;1.65;;
56039;SDS011;43937;41.366;2.072;2022-09-12T08:21:37;2.38;;;1.17;;
56039;SDS011;43937;41.366;2.072;2022-09-12T08:24:03;2.28;;;1.00;;
56039;SDS011;43937;41.366;2.072;2022-09-12T08:26:30;1.95;;;1.00;;
56039;SDS011;43937;41.366;2.072;2022-09-12T08:28:56;4.70;;;1.70;;
56039;SDS011;43937;41.366;2.072;2022-09-12T08:31:23;2.42;;;1.42;;
56039;SDS011;43937;41.366;2.072;2022-09-12T08:33:50;3.63;;;1.75;;
56039;SDS011;43937;41.366;2.072;2022-09-12T08:36:19;2.42;;;1.38;;
56039;SDS011;43937;41.366;2.072;2022-09-12T08:38:50;2.17;;;0.93;;
56039;SDS011;43937;41.366;2.072;2022-09-12T08:49:24;1.47;;;0.70;;
56039;SDS011;43937;41.366;2.072;2022-09-12T08:51:54;2.78;;;1.00;;
56039;SDS011;43937;41.366;2.072;2022-09-12T08:54:24;2.17;;;0.95;;
56039;SDS011;43937;41.366;2.072;2022-09-12T08:56:53;11.63;;;1.30;;
56039;SDS011;43937;41.366;2.072;2022-09-12T08:59:22;1.98;;;0.90;;
56039;SDS011;43937;41.366;2.072;2022-09-12T09:01:49;7.32;;;1.80;;
56039;SDS011;43937;41.366;2.072;2022-09-12T09:09:45;4.20;;;1.48;;
56039;SDS011;43937;41.366;2.072;2022-09-12T09:17:31;4.00;;;1.42;;
56039;SDS011;43937;41.366;2.072;2022-09-12T09:23:04;3.55;;;1.33;;
56039;SDS011;43937;41.366;2.072;2022-09-12T09:31:17;15.57;;;1.60;;
56039;SDS011;43937;41.366;2.072;2022-09-12T09:33:48;4.95;;;1.58;;
56039;SDS011;43937;41.366;2.072;2022-09-12T09:39:17;1.55;;;0.95;;
56039;SDS011;43937;41.366;2.072;2022-09-12T09:42:04;6.18;;;1.20;;
56039;SDS011;43937;41.366;2.072;2022-09-12T09:44:41;4.20;;;1.23;;
56039;SDS011;43937;41.366;2.072;2022-09-12T09:47:08;3.75;;;1.02;;
56039;SDS011;43937;41.366;2.072;2022-09-12T09:49:36;6.43;;;1.60;;
56039;SDS011;43937;41.366;2.072;2022-09-12T09:52:03;1.23;;;0.80;;
56039;SDS011;43937;41.366;2.072;2022-09-12T10:00:24;1.58;;;0.73;;
56039;SDS011;43937;41.366;2.072;2022-09-12T10:08:39;2.30;;;0.80;;
56039;SDS011;43937;41.366;2.072;2022-09-12T10:13:50;1.23;;;0.60;;
56039;SDS011;43937;41.366;2.072;2022-09-12T10:16:28;1.45;;;1.02;;
56039;SDS011;43937;41.366;2.072;2022-09-12T10:18:55;1.85;;;0.63;;
56039;SDS011;43937;41.366;2.072;2022-09-12T10:26:52;0.70;;;0.50;;
56039;SDS011;43937;41.366;2.072;2022-09-12T10:29:21;4.43;;;0.68;;
56039;SDS011;43937;41.366;2.072;2022-09-12T10:31:52;6.32;;;1.30;;
56039;SDS011;43937;41.366;2.072;2022-09-12T10:34:32;2.10;;;1.00;;
56039;SDS011;43937;41.366;2.072;2022-09-12T10:37:04;1.50;;;1.10;;
56039;SDS011;43937;41.366;2.072;2022-09-12T10:39:39;2.10;;;1.13;;
56039;SDS011;43937;41.366;2.072;2022-09-12T10:42:05;2.00;;;0.57;;
56039;SDS011;43937;41.366;2.072;2022-09-12T10:44:32;1.00;;;0.70;;
56039;SDS011;43937;41.366;2.072;2022-09-12T10:46:59;6.13;;;3.20;;
56039;SDS011;43937;41.366;2.072;2022-09-12T10:49:44;2.40;;;1.08;;
56039;SDS011;43937;41.366;2.072;2022-09-12T10:52:17;4.10;;;1.58;;
56039;SDS011;43937;41.366;2.072;2022-09-12T10:54:47;1.30;;;0.52;;
56039;SDS011;43937;41.366;2.072;2022-09-12T11:02:29;0.50;;;0.50;;
56039;SDS011;43937;41.366;2.072;2022-09-12T11:08:06;1.55;;;0.57;;
56039;SDS011;43937;41.366;2.072;2022-09-12T11:11:27;1.63;;;0.70;;
56039;SDS011;43937;41.366;2.072;2022-09-12T11:22:27;7.32;;;0.85;;
56039;SDS011;43937;41.366;2.072;2022-09-12T11:27:41;1.15;;;0.50;;
56039;SDS011;43937;41.366;2.072;2022-09-12T11:30:32;0.95;;;0.70;;
56039;SDS011;43937;41.366;2.072;2022-09-12T11:35:53;1.02;;;0.40;;
56039;SDS011;43937;41.366;2.072;2022-09-12T11:38:25;1.30;;;0.50;;
56039;SDS011;43937;41.366;2.072;2022-09-12T11:43:49;3.20;;;1.15;;
56039;SDS011;43937;41.366;2.072;2022-09-12T11:46:36;0.93;;;0.50;;
56039;SDS011;43937;41.366;2.072;2022-09-12T11:54:20;1.25;;;0.47;;
56039;SDS011;43937;41.366;2.072;2022-09-12T11:56:47;1.85;;;0.43;;
56039;SDS011;43937;41.366;2.072;2022-09-12T11:59:30;2.40;;;0.93;;
56039;SDS011;43937;41.366;2.072;2022-09-12T12:02:02;0.60;;;0.30;;
56039;SDS011;43937;41.366;2.072;2022-09-12T12:04:33;1.67;;;1.23;;
56039;SDS011;43937;41.366;2.072;2022-09-12T12:07:05;1.20;;;0.60;;
56039;SDS011;43937;41.366;2.072;2022-09-12T12:09:34;1.80;;;0.60;;
56039;SDS011;43937;41.366;2.072;2022-09-12T12:12:04;0.52;;;0.30;;
56039;SDS011;43937;41.366;2.072;2022-09-12T12:14:37;1.25;;;0.50;;
56039;SDS011;43937;41.366;2.072;2022-09-12T12:17:20;2.30;;;0.60;;
56039;SDS011;43937;41.366;2.072;2022-09-12T12:20:00;0.68;;;0.40;;
56039;SDS011;43937;41.366;2.072;2022-09-12T12:22:28;3.72;;;0.82;;
56039;SDS011;43937;41.366;2.072;2022-09-12T12:25:01;0.28;;;0.25;;
56039;SDS011;43937;41.366;2.072;2022-09-12T12:28:12;1.55;;;0.47;;
56039;SDS011;43937;41.366;2.072;2022-09-12T12:33:06;0.32;;;0.20;;
56039;SDS011;43937;41.366;2.072;2022-09-12T12:38:30;0.70;;;0.60;;
56039;SDS011;43937;41.366;2.072;2022-09-12T12:43:41;2.95;;;0.55;;
56039;SDS011;43937;41.366;2.072;2022-09-12T12:46:09;1.67;;;0.60;;
56039;SDS011;43937;41.366;2.072;2022-09-12T12:51:15;0.52;;;0.50;;
56039;SDS011;43937;41.366;2.072;2022-09-12T12:54:03;5.57;;;0.60;;
56039;SDS011;43937;41.366;2.072;2022-09-12T12:56:40;0.57;;;0.30;;
56039;SDS011;43937;41.366;2.072;2022-09-12T12:59:21;1.35;;;0.55;;
56039;SDS011;43937;41.366;2.072;2022-09-12T13:01:54;1.08;;;0.73;;
56039;SDS011;43937;41.366;2.072;2022-09-12T13:04:24;1.80;;;0.50;;
56039;SDS011;43937;41.366;2.072;2022-09-12T13:06:58;2.38;;;0.50;;
56039;SDS011;43937;41.366;2.072;2022-09-12T13:12:07;1.48;;;0.60;;
56039;SDS011;43937;41.366;2.072;2022-09-12T13:14:47;2.50;;;0.60;;
56039;SDS011;43937;41.366;2.072;2022-09-12T13:22:42;0.90;;;0.50;;
56039;SDS011;43937;41.366;2.072;2022-09-12T13:25:55;1.38;;;0.50;;
56039;SDS011;43937;41.366;2.072;2022-09-12T13:28:20;1.73;;;0.73;;
56039;SDS011;43937;41.366;2.072;2022-09-12T13:30:53;1.42;;;0.50;;
56039;SDS011;43937;41.366;2.072;2022-09-12T13:38:57;0.60;;;0.55;;
56039;SDS011;43937;41.366;2.072;2022-09-12T13:44:10;0.57;;;0.38;;
56039;SDS011;43937;41.366;2.072;2022-09-12T13:46:40;0.85;;;0.38;;
56039;SDS011;43937;41.366;2.072;2022-09-12T13:49:16;2.78;;;0.57;;
56039;SDS011;43937;41.366;2.072;2022-09-12T13:51:42;1.00;;;0.63;;
56039;SDS011;43937;41.366;2.072;2022-09-12T13:54:11;0.28;;;0.28;;
56039;SDS011;43937;41.366;2.072;2022-09-12T13:56:45;0.43;;;0.30;;
56039;SDS011;43937;41.366;2.072;2022-09-12T13:59:12;0.45;;;0.32;;
56039;SDS011;43937;41.366;2.072;2022-09-12T14:01:42;0.82;;;0.45;;
56039;SDS011;43937;41.366;2.072;2022-09-12T14:04:16;3.53;;;0.85;;
56039;SDS011;43937;41.366;2.072;2022-09-12T14:07:17;1.55;;;0.55;;
56039;SDS011;43937;41.366;2.072;2022-09-12T14:09:53;1.15;;;0.57;;
56039;SDS011;43937;41.366;2.072;2022-09-12T14:12:25;0.85;;;0.30;;
56039;SDS011;43937;41.366;2.072;2022-09-12T14:14:54;1.08;;;0.50;;
56039;SDS011;43937;41.366;2.072;2022-09-12T14:19:56;0.68;;;0.45;;
56039;SDS011;43937;41.366;2.072;2022-09-12T14:22:26;1.00;;;0.40;;
56039;SDS011;43937;41.366;2.072;2022-09-12T14:24:54;1.63;;;0.68;;
56039;SDS011;43937;41.366;2.072;2022-09-12T14:27:22;1.45;;;0.43;;
56039;SDS011;43937;41.366;2.072;2022-09-12T14:29:52;3.90;;;0.73;;
56039;SDS011;43937;41.366;2.072;2022-09-12T14:32:26;0.57;;;0.50;;
56039;SDS011;43937;41.366;2.072;2022-09-12T14:37:49;1.75;;;0.60;;
56039;SDS011;43937;41.366;2.072;2022-09-12T14:40:19;0.52;;;0.35;;
56039;SDS011;43937;41.366;2.072;2022-09-12T14:45:17;0.57;;;0.50;;
56039;SDS011;43937;41.366;2.072;2022-09-12T14:47:49;4.43;;;1.15;;
56039;SDS011;43937;41.366;2.072;2022-09-12T14:50:20;0.82;;;0.50;;
56039;SDS011;43937;41.366;2.072;2022-09-12T14:55:46;0.75;;;0.30;;
56039;SDS011;43937;41.366;2.072;2022-09-12T14:58:22;1.13;;;0.50;;
56039;SDS011;43937;41.366;2.072;2022-09-12T15:00:54;1.55;;;0.40;;
56039;SDS011;43937;41.366;2.072;2022-09-12T15:03:27;1.92;;;0.77;;
56039;SDS011;43937;41.366;2.072;2022-09-12T15:05:54;4.43;;;0.47;;
56039;SDS011;43937;41.366;2.072;2022-09-12T15:08:20;1.88;;;0.35;;
56039;SDS011;43937;41.366;2.072;2022-09-12T15:10:46;0.50;;;0.50;;
56039;SDS011;43937;41.366;2.072;2022-09-12T15:13:16;0.70;;;0.40;;
56039;SDS011;43937;41.366;2.072;2022-09-12T15:18:20;1.25;;;0.68;;
56039;SDS011;43937;41.366;2.072;2022-09-12T15:20:48;1.38;;;0.47;;
56039;SDS011;43937;41.366;2.072;2022-09-12T15:23:38;0.68;;;0.52;;
56039;SDS011;43937;41.366;2.072;2022-09-12T15:26:02;4.28;;;0.77;;
56039;SDS011;43937;41.366;2.072;2022-09-12T15:28:28;1.17;;;0.75;;
56039;SDS011;43937;41.366;2.072;2022-09-12T15:30:55;0.68;;;0.60;;
56039;SDS011;43937;41.366;2.072;2022-09-12T15:33:23;2.15;;;0.90;;
56039;SDS011;43937;41.366;2.072;2022-09-12T15:35:50;3.88;;;0.98;;
56039;SDS011;43937;41.366;2.072;2022-09-12T15:38:16;4.53;;;1.17;;
56039;SDS011;43937;41.366;2.072;2022-09-12T15:40:42;2.30;;;0.50;;
56039;SDS011;43937;41.366;2.072;2022-09-12T15:43:12;1.65;;;0.55;;
56039;SDS011;43937;41.366;2.072;2022-09-12T15:45:38;2.40;;;0.63;;
56039;SDS011;43937;41.366;2.072;2022-09-12T15:48:06;2.75;;;0.90;;
56039;SDS011;43937;41.366;2.072;2022-09-12T15:50:31;1.10;;;0.65;;
56039;SDS011;43937;41.366;2.072;2022-09-12T15:52:57;2.08;;;0.75;;
56039;SDS011;43937;41.366;2.072;2022-09-12T15:55:26;2.13;;;0.50;;
56039;SDS011;43937;41.366;2.072;2022-09-12T15:57:54;1.00;;;0.40;;
56039;SDS011;43937;41.366;2.072;2022-09-12T16:00:19;4.55;;;1.10;;
56039;SDS011;43937;41.366;2.072;2022-09-12T16:02:46;8.23;;;0.77;;
56039;SDS011;43937;41.366;2.072;2022-09-12T16:05:15;5.82;;;1.05;;
56039;SDS011;43937;41.366;2.072;2022-09-12T16:07:47;1.75;;;0.47;;
56039;SDS011;43937;41.366;2.072;2022-09-12T16:10:17;0.50;;;0.30;;
56039;SDS011;43937;41.366;2.072;2022-09-12T16:12:45;2.70;;;0.50;;
56039;SDS011;43937;41.366;2.072;2022-09-12T16:15:11;1.40;;;0.57;;
56039;SDS011;43937;41.366;2.072;2022-09-12T16:17:38;1.55;;;0.63;;
56039;SDS011;43937;41.366;2.072;2022-09-12T16:20:04;1.90;;;1.50;;
56039;SDS011;43937;41.366;2.072;2022-09-12T16:22:29;1.95;;;0.80;;
56039;SDS011;43937;41.366;2.072;2022-09-12T16:24:55;1.23;;;0.60;;
56039;SDS011;43937;41.366;2.072;2022-09-12T16:27:20;1.65;;;0.90;;
56039;SDS011;43937;41.366;2.072;2022-09-12T16:29:45;0.60;;;0.40;;
56039;SDS011;43937;41.366;2.072;2022-09-12T16:32:11;0.57;;;0.50;;
56039;SDS011;43937;41.366;2.072;2022-09-12T16:34:36;7.68;;;0.80;;
56039;SDS011;43937;41.366;2.072;2022-09-12T16:37:02;2.63;;;0.60;;
56039;SDS011;43937;41.366;2.072;2022-09-12T16:39:27;0.77;;;0.50;;
56039;SDS011;43937;41.366;2.072;2022-09-12T16:41:54;1.33;;;0.50;;
56039;SDS011;43937;41.366;2.072;2022-09-12T16:44:19;1.30;;;0.55;;
56039;SDS011;43937;41.366;2.072;2022-09-12T16:46:45;3.47;;;0.80;;
56039;SDS011;43937;41.366;2.072;2022-09-12T16:49:10;2.88;;;0.65;;
56039;SDS011;43937;41.366;2.072;2022-09-12T16:51:36;2.15;;;0.65;;
56039;SDS011;43937;41.366;2.072;2022-09-12T16:54:01;0.82;;;0.40;;
56039;SDS011;43937;41.366;2.072;2022-09-12T16:56:28;5.68;;;0.75;;
56039;SDS011;43937;41.366;2.072;2022-09-12T16:58:53;1.13;;;0.68;;
56039;SDS011;43937;41.366;2.072;2022-09-12T17:01:20;1.52;;;0.68;;
56039;SDS011;43937;41.366;2.072;2022-09-12T17:03:47;0.30;;;0.30;;
56039;SDS011;43937;41.366;2.072;2022-09-12T17:06:17;1.88;;;1.20;;
56039;SDS011;43937;41.366;2.072;2022-09-12T17:08:45;2.58;;;0.82;;
56039;SDS011;43937;41.366;2.072;2022-09-12T17:11:13;0.50;;;0.47;;
56039;SDS011;43937;41.366;2.072;2022-09-12T17:13:40;0.63;;;0.55;;
56039;SDS011;43937;41.366;2.072;2022-09-12T17:16:10;1.80;;;0.75;;
56039;SDS011;43937;41.366;2.072;2022-09-12T17:18:39;1.25;;;0.75;;
56039;SDS011;43937;41.366;2.072;2022-09-12T17:21:05;5.53;;;1.50;;
56039;SDS011;43937;41.366;2.072;2022-09-12T17:23:32;2.50;;;0.70;;
56039;SDS011;43937;41.366;2.072;2022-09-12T17:26:11;1.13;;;0.70;;
56039;SDS011;43937;41.366;2.072;2022-09-12T17:28:43;1.13;;;0.70;;
56039;SDS011;43937;41.366;2.072;2022-09-12T17:31:10;0.68;;;0.50;;
56039;SDS011;43937;41.366;2.072;2022-09-12T17:33:37;4.13;;;0.85;;
56039;SDS011;43937;41.366;2.072;2022-09-12T17:36:04;16.92;;;1.10;;
56039;SDS011;43937;41.366;2.072;2022-09-12T17:38:31;5.65;;;1.08;;
56039;SDS011;43937;41.366;2.072;2022-09-12T17:43:55;0.82;;;0.82;;
56039;SDS011;43937;41.366;2.072;2022-09-12T17:46:23;0.77;;;0.73;;
56039;SDS011;43937;41.366;2.072;2022-09-12T17:48:51;1.63;;;0.60;;
56039;SDS011;43937;41.366;2.072;2022-09-12T17:51:17;3.58;;;0.80;;
56039;SDS011;43937;41.366;2.072;2022-09-12T17:53:43;1.90;;;0.70;;
56039;SDS011;43937;41.366;2.072;2022-09-12T17:56:08;2.55;;;0.82;;
56039;SDS011;43937;41.366;2.072;2022-09-12T17:58:35;1.58;;;0.70;;
56039;SDS011;43937;41.366;2.072;2022-09-12T18:01:02;1.08;;;0.60;;
56039;SDS011;43937;41.366;2.072;2022-09-12T18:03:47;1.23;;;0.52;;
56039;SDS011;43937;41.366;2.072;2022-09-12T18:06:12;1.23;;;0.40;;